Cerro Cora, Brazil
Current Conditions -  °F | °C
As of 6:00 PM on Tuesday 25 Nov 2014 (Local Time) from SBNT Reporting Station
Scattered Clouds Scattered Clouds  
Wind Chill: 81°   Ceiling: Unl
Heat Index: 83°   Visibility: 6mi
Dew Point: 68°   Wind: 18mph
Humidity: 65%   Direction: 120°ESE
Pressure: 29.85"   Gusts: NA
Location:  6.05°S, 36.35°W
Report Text: SBNT 252100Z 12016KT 9999 SCT020 SCT100 27/20 Q1011
Loading
Personal Weather Stations






























Interactive Weather Map New forecast layout! Learn more

10-Day Weather Forecast

Advertisements
Track Severe Weather on mobile